Terminal Aerodrome Forecast
Issued by NWS

Home | Current Version | Previous Version | Text Only | Print | Product List | Glossary On
Versions: 1 2 3 4 5 6 7 8 9 10 11 12 13 14 15 16 17 18 19
000
FTUS43 KDDC 222320
TAFHYS
TAF
KHYS 222320Z 2300/2324 17015KT P6SM SCT250
     FM230700 17010KT P6SM BKN250
     FM231300 18013KT P6SM SCT200
     FM231700 19019G27KT P6SM SCT250=

USA.gov is the U.S. government's official web portal to all federal, state and local government web resources and services.